sensor_id;sensor_type;location;lat;lon;timestamp;P1;durP1;ratioP1;P2;durP2;ratioP2
20090;SDS011;10205;49.678;6.560;2023-04-03T00:01:04;1.80;;;1.70;;
20090;SDS011;10205;49.678;6.560;2023-04-03T00:03:31;1.80;;;1.70;;
20090;SDS011;10205;49.678;6.560;2023-04-03T00:05:59;1.93;;;1.60;;
20090;SDS011;10205;49.678;6.560;2023-04-03T00:08:28;2.17;;;1.90;;
20090;SDS011;10205;49.678;6.560;2023-04-03T00:10:57;1.97;;;1.77;;
20090;SDS011;10205;49.678;6.560;2023-04-03T00:13:25;2.00;;;1.80;;
20090;SDS011;10205;49.678;6.560;2023-04-03T00:15:52;2.97;;;1.90;;
20090;SDS011;10205;49.678;6.560;2023-04-03T00:18:20;2.93;;;2.07;;
20090;SDS011;10205;49.678;6.560;2023-04-03T00:20:48;2.87;;;1.60;;
20090;SDS011;10205;49.678;6.560;2023-04-03T00:23:16;1.70;;;1.60;;
20090;SDS011;10205;49.678;6.560;2023-04-03T00:25:43;2.28;;;1.63;;
20090;SDS011;10205;49.678;6.560;2023-04-03T00:28:11;2.03;;;1.80;;
20090;SDS011;10205;49.678;6.560;2023-04-03T00:30:38;1.63;;;1.53;;
20090;SDS011;10205;49.678;6.560;2023-04-03T00:33:05;2.03;;;1.87;;
20090;SDS011;10205;49.678;6.560;2023-04-03T00:35:34;2.40;;;1.70;;
20090;SDS011;10205;49.678;6.560;2023-04-03T00:38:01;2.53;;;1.57;;
20090;SDS011;10205;49.678;6.560;2023-04-03T00:40:32;2.23;;;2.03;;
20090;SDS011;10205;49.678;6.560;2023-04-03T00:43:01;2.03;;;1.90;;
20090;SDS011;10205;49.678;6.560;2023-04-03T00:45:40;1.93;;;1.67;;
20090;SDS011;10205;49.678;6.560;2023-04-03T00:48:10;2.33;;;1.60;;
20090;SDS011;10205;49.678;6.560;2023-04-03T00:50:44;2.20;;;2.00;;
20090;SDS011;10205;49.678;6.560;2023-04-03T00:53:14;3.40;;;1.93;;
20090;SDS011;10205;49.678;6.560;2023-04-03T00:55:50;2.20;;;2.00;;
20090;SDS011;10205;49.678;6.560;2023-04-03T00:58:20;2.33;;;1.77;;
20090;SDS011;10205;49.678;6.560;2023-04-03T01:00:58;2.20;;;2.00;;
20090;SDS011;10205;49.678;6.560;2023-04-03T01:03:31;1.90;;;1.70;;
20090;SDS011;10205;49.678;6.560;2023-04-03T01:06:01;2.47;;;1.97;;
20090;SDS011;10205;49.678;6.560;2023-04-03T01:08:28;2.53;;;1.80;;
20090;SDS011;10205;49.678;6.560;2023-04-03T01:10:56;2.30;;;1.97;;
20090;SDS011;10205;49.678;6.560;2023-04-03T01:13:24;1.70;;;1.60;;
20090;SDS011;10205;49.678;6.560;2023-04-03T01:15:54;2.10;;;1.90;;
20090;SDS011;10205;49.678;6.560;2023-04-03T01:18:22;2.30;;;2.13;;
20090;SDS011;10205;49.678;6.560;2023-04-03T01:27:04;3.00;;;2.13;;
20090;SDS011;10205;49.678;6.560;2023-04-03T01:29:38;2.33;;;2.13;;
20090;SDS011;10205;49.678;6.560;2023-04-03T01:32:09;2.87;;;1.73;;
20090;SDS011;10205;49.678;6.560;2023-04-03T01:34:37;2.10;;;1.73;;
20090;SDS011;10205;49.678;6.560;2023-04-03T01:37:04;2.10;;;1.90;;
20090;SDS011;10205;49.678;6.560;2023-04-03T01:39:31;1.87;;;1.77;;
20090;SDS011;10205;49.678;6.560;2023-04-03T01:41:59;1.70;;;1.60;;
20090;SDS011;10205;49.678;6.560;2023-04-03T01:44:27;1.90;;;1.80;;
20090;SDS011;10205;49.678;6.560;2023-04-03T01:46:55;2.77;;;1.77;;
20090;SDS011;10205;49.678;6.560;2023-04-03T01:49:23;1.80;;;1.70;;
20090;SDS011;10205;49.678;6.560;2023-04-03T01:51:50;2.10;;;1.90;;
20090;SDS011;10205;49.678;6.560;2023-04-03T01:54:18;1.90;;;1.80;;
20090;SDS011;10205;49.678;6.560;2023-04-03T01:56:45;1.87;;;1.77;;
20090;SDS011;10205;49.678;6.560;2023-04-03T01:59:12;1.83;;;1.67;;
20090;SDS011;10205;49.678;6.560;2023-04-03T02:01:42;2.53;;;1.70;;
20090;SDS011;10205;49.678;6.560;2023-04-03T02:04:10;2.20;;;1.90;;
20090;SDS011;10205;49.678;6.560;2023-04-03T02:06:39;2.27;;;1.80;;
20090;SDS011;10205;49.678;6.560;2023-04-03T02:09:06;1.90;;;1.80;;
20090;SDS011;10205;49.678;6.560;2023-04-03T02:11:33;2.67;;;1.90;;
20090;SDS011;10205;49.678;6.560;2023-04-03T02:14:00;2.20;;;2.00;;
20090;SDS011;10205;49.678;6.560;2023-04-03T02:16:28;1.90;;;1.80;;
20090;SDS011;10205;49.678;6.560;2023-04-03T02:18:55;1.90;;;1.80;;
20090;SDS011;10205;49.678;6.560;2023-04-03T02:21:23;2.13;;;1.93;;
20090;SDS011;10205;49.678;6.560;2023-04-03T02:23:51;1.73;;;1.63;;
20090;SDS011;10205;49.678;6.560;2023-04-03T02:26:18;1.80;;;1.70;;
20090;SDS011;10205;49.678;6.560;2023-04-03T02:28:46;1.70;;;1.60;;
20090;SDS011;10205;49.678;6.560;2023-04-03T02:31:13;1.80;;;1.60;;
20090;SDS011;10205;49.678;6.560;2023-04-03T02:33:41;1.70;;;1.60;;
20090;SDS011;10205;49.678;6.560;2023-04-03T02:36:08;1.80;;;1.70;;
20090;SDS011;10205;49.678;6.560;2023-04-03T02:38:35;2.03;;;1.60;;
20090;SDS011;10205;49.678;6.560;2023-04-03T02:41:05;2.17;;;1.60;;
20090;SDS011;10205;49.678;6.560;2023-04-03T02:43:36;2.63;;;1.97;;
20090;SDS011;10205;49.678;6.560;2023-04-03T02:46:04;1.90;;;1.70;;
20090;SDS011;10205;49.678;6.560;2023-04-03T02:48:33;2.10;;;1.90;;
20090;SDS011;10205;49.678;6.560;2023-04-03T02:51:00;2.20;;;1.80;;
20090;SDS011;10205;49.678;6.560;2023-04-03T02:53:27;1.93;;;1.83;;
20090;SDS011;10205;49.678;6.560;2023-04-03T02:55:55;2.13;;;1.93;;
20090;SDS011;10205;49.678;6.560;2023-04-03T02:58:23;1.80;;;1.70;;
20090;SDS011;10205;49.678;6.560;2023-04-03T03:00:50;3.07;;;2.03;;
20090;SDS011;10205;49.678;6.560;2023-04-03T03:03:17;2.20;;;2.00;;
20090;SDS011;10205;49.678;6.560;2023-04-03T03:05:44;2.00;;;1.90;;
20090;SDS011;10205;49.678;6.560;2023-04-03T03:08:13;2.20;;;2.00;;
20090;SDS011;10205;49.678;6.560;2023-04-03T03:10:40;1.73;;;1.63;;
20090;SDS011;10205;49.678;6.560;2023-04-03T03:13:07;2.30;;;1.73;;
20090;SDS011;10205;49.678;6.560;2023-04-03T03:15:35;3.27;;;2.03;;
20090;SDS011;10205;49.678;6.560;2023-04-03T03:18:03;2.00;;;1.90;;
20090;SDS011;10205;49.678;6.560;2023-04-03T03:20:30;3.03;;;1.90;;
20090;SDS011;10205;49.678;6.560;2023-04-03T03:22:58;2.60;;;1.97;;
20090;SDS011;10205;49.678;6.560;2023-04-03T03:25:25;2.97;;;2.33;;
20090;SDS011;10205;49.678;6.560;2023-04-03T03:27:52;3.93;;;2.17;;
20090;SDS011;10205;49.678;6.560;2023-04-03T03:30:19;2.30;;;2.10;;
20090;SDS011;10205;49.678;6.560;2023-04-03T03:32:48;2.97;;;2.03;;
20090;SDS011;10205;49.678;6.560;2023-04-03T03:35:15;3.27;;;2.27;;
20090;SDS011;10205;49.678;6.560;2023-04-03T03:37:42;2.93;;;2.40;;
20090;SDS011;10205;49.678;6.560;2023-04-03T03:40:10;2.17;;;2.00;;
20090;SDS011;10205;49.678;6.560;2023-04-03T03:42:38;2.17;;;2.00;;
20090;SDS011;10205;49.678;6.560;2023-04-03T03:45:05;2.03;;;1.87;;
20090;SDS011;10205;49.678;6.560;2023-04-03T03:47:35;2.30;;;2.10;;
20090;SDS011;10205;49.678;6.560;2023-04-03T03:50:04;3.40;;;2.17;;
20090;SDS011;10205;49.678;6.560;2023-04-03T03:52:33;2.20;;;2.00;;
20090;SDS011;10205;49.678;6.560;2023-04-03T03:55:00;2.27;;;2.07;;
20090;SDS011;10205;49.678;6.560;2023-04-03T03:57:28;2.00;;;1.90;;
20090;SDS011;10205;49.678;6.560;2023-04-03T03:59:55;2.80;;;1.87;;
20090;SDS011;10205;49.678;6.560;2023-04-03T04:02:22;2.33;;;2.10;;
20090;SDS011;10205;49.678;6.560;2023-04-03T04:04:49;1.97;;;1.80;;
20090;SDS011;10205;49.678;6.560;2023-04-03T04:07:20;2.00;;;1.90;;
20090;SDS011;10205;49.678;6.560;2023-04-03T04:09:47;2.10;;;1.90;;
20090;SDS011;10205;49.678;6.560;2023-04-03T04:12:14;2.70;;;2.00;;
20090;SDS011;10205;49.678;6.560;2023-04-03T04:14:42;2.00;;;1.80;;
20090;SDS011;10205;49.678;6.560;2023-04-03T04:17:11;1.70;;;1.60;;
20090;SDS011;10205;49.678;6.560;2023-04-03T04:19:38;2.13;;;1.93;;
20090;SDS011;10205;49.678;6.560;2023-04-03T04:22:08;2.27;;;2.07;;
20090;SDS011;10205;49.678;6.560;2023-04-03T04:24:36;2.13;;;1.93;;
20090;SDS011;10205;49.678;6.560;2023-04-03T04:27:03;1.83;;;1.73;;
20090;SDS011;10205;49.678;6.560;2023-04-03T04:29:30;2.00;;;1.80;;
20090;SDS011;10205;49.678;6.560;2023-04-03T04:32:00;1.70;;;1.60;;
20090;SDS011;10205;49.678;6.560;2023-04-03T04:34:28;1.90;;;1.73;;
20090;SDS011;10205;49.678;6.560;2023-04-03T04:36:55;2.00;;;1.90;;
20090;SDS011;10205;49.678;6.560;2023-04-03T04:39:22;2.17;;;1.93;;
20090;SDS011;10205;49.678;6.560;2023-04-03T04:41:51;2.40;;;2.20;;
20090;SDS011;10205;49.678;6.560;2023-04-03T04:44:18;2.23;;;1.90;;
20090;SDS011;10205;49.678;6.560;2023-04-03T04:46:46;1.80;;;1.70;;
20090;SDS011;10205;49.678;6.560;2023-04-03T04:49:13;2.27;;;1.93;;
20090;SDS011;10205;49.678;6.560;2023-04-03T04:51:40;1.70;;;1.60;;
20090;SDS011;10205;49.678;6.560;2023-04-03T04:54:10;2.07;;;1.97;;
20090;SDS011;10205;49.678;6.560;2023-04-03T04:56:37;2.67;;;2.00;;
20090;SDS011;10205;49.678;6.560;2023-04-03T04:59:07;2.50;;;1.90;;
20090;SDS011;10205;49.678;6.560;2023-04-03T05:01:34;2.87;;;2.00;;
20090;SDS011;10205;49.678;6.560;2023-04-03T05:04:01;1.80;;;1.70;;
20090;SDS011;10205;49.678;6.560;2023-04-03T05:06:29;2.40;;;1.77;;
20090;SDS011;10205;49.678;6.560;2023-04-03T05:08:56;2.73;;;2.10;;
20090;SDS011;10205;49.678;6.560;2023-04-03T05:11:24;2.13;;;1.90;;
20090;SDS011;10205;49.678;6.560;2023-04-03T05:13:51;2.13;;;1.97;;
20090;SDS011;10205;49.678;6.560;2023-04-03T05:16:20;2.03;;;1.93;;
20090;SDS011;10205;49.678;6.560;2023-04-03T05:18:47;2.10;;;1.90;;
20090;SDS011;10205;49.678;6.560;2023-04-03T05:21:14;2.43;;;2.23;;
20090;SDS011;10205;49.678;6.560;2023-04-03T05:23:43;1.80;;;1.70;;
20090;SDS011;10205;49.678;6.560;2023-04-03T05:26:10;2.10;;;1.90;;
20090;SDS011;10205;49.678;6.560;2023-04-03T05:28:37;2.20;;;2.10;;
20090;SDS011;10205;49.678;6.560;2023-04-03T05:31:04;3.37;;;1.97;;
20090;SDS011;10205;49.678;6.560;2023-04-03T05:33:33;3.17;;;2.20;;
20090;SDS011;10205;49.678;6.560;2023-04-03T05:36:01;2.47;;;2.20;;
20090;SDS011;10205;49.678;6.560;2023-04-03T05:38:31;2.60;;;1.97;;
20090;SDS011;10205;49.678;6.560;2023-04-03T05:40:59;1.90;;;1.80;;
20090;SDS011;10205;49.678;6.560;2023-04-03T05:43:29;2.50;;;2.10;;
20090;SDS011;10205;49.678;6.560;2023-04-03T05:45:57;1.87;;;1.77;;
20090;SDS011;10205;49.678;6.560;2023-04-03T05:48:25;2.23;;;2.03;;
20090;SDS011;10205;49.678;6.560;2023-04-03T05:50:53;2.30;;;2.10;;
20090;SDS011;10205;49.678;6.560;2023-04-03T05:53:21;2.37;;;2.10;;
20090;SDS011;10205;49.678;6.560;2023-04-03T05:55:54;2.53;;;2.23;;
20090;SDS011;10205;49.678;6.560;2023-04-03T05:58:21;1.97;;;1.80;;
20090;SDS011;10205;49.678;6.560;2023-04-03T06:00:48;2.23;;;2.03;;
20090;SDS011;10205;49.678;6.560;2023-04-03T06:03:18;2.30;;;2.10;;
20090;SDS011;10205;49.678;6.560;2023-04-03T06:05:46;3.43;;;2.07;;
20090;SDS011;10205;49.678;6.560;2023-04-03T06:08:14;2.23;;;2.10;;
20090;SDS011;10205;49.678;6.560;2023-04-03T06:10:42;4.37;;;2.27;;
20090;SDS011;10205;49.678;6.560;2023-04-03T06:13:10;2.60;;;2.03;;
20090;SDS011;10205;49.678;6.560;2023-04-03T06:15:37;2.20;;;2.10;;
20090;SDS011;10205;49.678;6.560;2023-04-03T06:18:05;2.43;;;2.10;;
20090;SDS011;10205;49.678;6.560;2023-04-03T06:20:33;3.63;;;2.30;;
20090;SDS011;10205;49.678;6.560;2023-04-03T06:23:00;2.80;;;2.47;;
20090;SDS011;10205;49.678;6.560;2023-04-03T06:25:30;2.97;;;2.00;;
20090;SDS011;10205;49.678;6.560;2023-04-03T06:27:58;3.77;;;2.43;;
20090;SDS011;10205;49.678;6.560;2023-04-03T06:30:28;3.20;;;2.90;;
20090;SDS011;10205;49.678;6.560;2023-04-03T06:32:56;3.93;;;2.43;;
20090;SDS011;10205;49.678;6.560;2023-04-03T06:35:24;4.33;;;2.80;;
20090;SDS011;10205;49.678;6.560;2023-04-03T06:37:53;4.47;;;3.10;;
20090;SDS011;10205;49.678;6.560;2023-04-03T06:40:22;3.27;;;2.67;;
20090;SDS011;10205;49.678;6.560;2023-04-03T06:42:53;3.10;;;2.80;;
20090;SDS011;10205;49.678;6.560;2023-04-03T06:45:20;4.47;;;2.80;;
20090;SDS011;10205;49.678;6.560;2023-04-03T06:47:47;3.47;;;2.43;;
20090;SDS011;10205;49.678;6.560;2023-04-03T06:50:14;4.70;;;3.10;;
20090;SDS011;10205;49.678;6.560;2023-04-03T06:52:42;3.67;;;2.90;;
20090;SDS011;10205;49.678;6.560;2023-04-03T06:55:09;6.30;;;3.40;;
20090;SDS011;10205;49.678;6.560;2023-04-03T06:57:36;2.83;;;2.60;;
20090;SDS011;10205;49.678;6.560;2023-04-03T07:00:06;5.93;;;3.27;;
20090;SDS011;10205;49.678;6.560;2023-04-03T07:02:35;4.43;;;3.10;;
20090;SDS011;10205;49.678;6.560;2023-04-03T07:05:02;4.23;;;2.20;;
20090;SDS011;10205;49.678;6.560;2023-04-03T07:07:31;3.87;;;2.50;;
20090;SDS011;10205;49.678;6.560;2023-04-03T07:09:59;2.10;;;2.00;;
20090;SDS011;10205;49.678;6.560;2023-04-03T07:12:26;3.80;;;2.50;;
20090;SDS011;10205;49.678;6.560;2023-04-03T07:14:53;3.93;;;2.17;;
20090;SDS011;10205;49.678;6.560;2023-04-03T07:17:22;2.20;;;2.00;;
20090;SDS011;10205;49.678;6.560;2023-04-03T07:19:50;3.13;;;2.10;;
20090;SDS011;10205;49.678;6.560;2023-04-03T07:22:17;2.53;;;2.33;;
20090;SDS011;10205;49.678;6.560;2023-04-03T07:24:45;2.23;;;2.07;;
20090;SDS011;10205;49.678;6.560;2023-04-03T07:27:12;2.13;;;1.93;;
20090;SDS011;10205;49.678;6.560;2023-04-03T07:29:40;2.60;;;2.00;;
20090;SDS011;10205;49.678;6.560;2023-04-03T07:32:08;2.77;;;2.03;;
20090;SDS011;10205;49.678;6.560;2023-04-03T07:34:36;2.23;;;2.03;;
20090;SDS011;10205;49.678;6.560;2023-04-03T07:37:03;6.27;;;2.33;;
20090;SDS011;10205;49.678;6.560;2023-04-03T07:39:32;3.10;;;2.30;;
20090;SDS011;10205;49.678;6.560;2023-04-03T07:41:59;2.37;;;1.93;;
20090;SDS011;10205;49.678;6.560;2023-04-03T07:44:27;3.13;;;2.30;;
20090;SDS011;10205;49.678;6.560;2023-04-03T07:46:55;1.93;;;1.80;;
20090;SDS011;10205;49.678;6.560;2023-04-03T07:49:22;3.23;;;1.83;;
20090;SDS011;10205;49.678;6.560;2023-04-03T07:51:50;2.37;;;2.13;;
20090;SDS011;10205;49.678;6.560;2023-04-03T07:54:18;2.50;;;1.83;;
20090;SDS011;10205;49.678;6.560;2023-04-03T07:56:45;3.30;;;2.00;;
20090;SDS011;10205;49.678;6.560;2023-04-03T07:59:13;2.60;;;1.80;;
20090;SDS011;10205;49.678;6.560;2023-04-03T08:01:40;3.07;;;2.03;;
20090;SDS011;10205;49.678;6.560;2023-04-03T08:04:07;2.20;;;2.00;;
20090;SDS011;10205;49.678;6.560;2023-04-03T08:06:35;4.60;;;2.17;;
20090;SDS011;10205;49.678;6.560;2023-04-03T08:09:04;2.00;;;1.80;;
20090;SDS011;10205;49.678;6.560;2023-04-03T08:11:31;2.40;;;2.20;;
20090;SDS011;10205;49.678;6.560;2023-04-03T08:13:59;3.37;;;2.10;;
20090;SDS011;10205;49.678;6.560;2023-04-03T08:16:27;1.80;;;1.70;;
20090;SDS011;10205;49.678;6.560;2023-04-03T08:18:55;3.50;;;2.00;;
20090;SDS011;10205;49.678;6.560;2023-04-03T08:21:22;1.90;;;1.70;;
20090;SDS011;10205;49.678;6.560;2023-04-03T08:23:49;2.07;;;1.70;;
20090;SDS011;10205;49.678;6.560;2023-04-03T08:26:19;3.43;;;1.73;;
20090;SDS011;10205;49.678;6.560;2023-04-03T08:28:47;4.57;;;2.17;;
20090;SDS011;10205;49.678;6.560;2023-04-03T08:31:17;1.97;;;1.70;;
20090;SDS011;10205;49.678;6.560;2023-04-03T08:33:45;3.60;;;1.77;;
20090;SDS011;10205;49.678;6.560;2023-04-03T08:36:19;2.00;;;1.80;;
20090;SDS011;10205;49.678;6.560;2023-04-03T08:38:48;2.00;;;1.57;;
20090;SDS011;10205;49.678;6.560;2023-04-03T08:41:20;2.50;;;1.93;;
20090;SDS011;10205;49.678;6.560;2023-04-03T08:44:00;5.10;;;1.90;;
20090;SDS011;10205;49.678;6.560;2023-04-03T08:46:57;3.60;;;1.97;;
20090;SDS011;10205;49.678;6.560;2023-04-03T08:49:40;2.70;;;1.90;;
20090;SDS011;10205;49.678;6.560;2023-04-03T08:52:13;4.97;;;2.10;;
20090;SDS011;10205;49.678;6.560;2023-04-03T08:54:49;2.33;;;2.10;;
20090;SDS011;10205;49.678;6.560;2023-04-03T08:57:23;3.63;;;1.90;;
20090;SDS011;10205;49.678;6.560;2023-04-03T08:59:57;2.00;;;1.80;;
20090;SDS011;10205;49.678;6.560;2023-04-03T09:02:31;4.50;;;1.93;;
20090;SDS011;10205;49.678;6.560;2023-04-03T09:05:09;3.53;;;1.60;;
20090;SDS011;10205;49.678;6.560;2023-04-03T09:07:42;2.83;;;1.60;;
20090;SDS011;10205;49.678;6.560;2023-04-03T09:10:13;2.97;;;2.07;;
20090;SDS011;10205;49.678;6.560;2023-04-03T09:12:49;2.70;;;1.80;;
20090;SDS011;10205;49.678;6.560;2023-04-03T09:15:27;2.10;;;1.67;;
20090;SDS011;10205;49.678;6.560;2023-04-03T09:17:59;1.87;;;1.77;;
20090;SDS011;10205;49.678;6.560;2023-04-03T09:20:39;1.70;;;1.53;;
20090;SDS011;10205;49.678;6.560;2023-04-03T09:23:14;2.07;;;1.70;;
20090;SDS011;10205;49.678;6.560;2023-04-03T09:25:51;2.30;;;1.73;;
20090;SDS011;10205;49.678;6.560;2023-04-03T09:28:30;1.67;;;1.53;;
20090;SDS011;10205;49.678;6.560;2023-04-03T09:31:01;2.20;;;1.73;;
20090;SDS011;10205;49.678;6.560;2023-04-03T09:33:42;2.73;;;2.07;;
20090;SDS011;10205;49.678;6.560;2023-04-03T09:36:10;2.47;;;1.60;;
20090;SDS011;10205;49.678;6.560;2023-04-03T09:38:38;3.50;;;1.70;;
20090;SDS011;10205;49.678;6.560;2023-04-03T09:41:06;3.07;;;1.80;;
20090;SDS011;10205;49.678;6.560;2023-04-03T09:43:43;3.73;;;2.03;;
20090;SDS011;10205;49.678;6.560;2023-04-03T09:46:30;2.40;;;1.80;;
20090;SDS011;10205;49.678;6.560;2023-04-03T09:49:00;3.43;;;1.83;;
20090;SDS011;10205;49.678;6.560;2023-04-03T09:51:30;2.73;;;1.80;;
20090;SDS011;10205;49.678;6.560;2023-04-03T09:53:58;2.23;;;1.73;;
20090;SDS011;10205;49.678;6.560;2023-04-03T09:56:26;2.23;;;1.70;;
20090;SDS011;10205;49.678;6.560;2023-04-03T10:01:56;2.15;;;1.60;;
20090;SDS011;10205;49.678;6.560;2023-04-03T10:04:36;2.40;;;1.70;;
20090;SDS011;10205;49.678;6.560;2023-04-03T10:07:25;2.10;;;1.90;;
20090;SDS011;10205;49.678;6.560;2023-04-03T10:09:57;2.53;;;1.60;;
20090;SDS011;10205;49.678;6.560;2023-04-03T10:12:28;2.20;;;1.70;;
20090;SDS011;10205;49.678;6.560;2023-04-03T10:14:57;3.23;;;1.70;;
20090;SDS011;10205;49.678;6.560;2023-04-03T10:17:31;1.60;;;1.50;;
20090;SDS011;10205;49.678;6.560;2023-04-03T10:20:20;3.80;;;1.73;;
20090;SDS011;10205;49.678;6.560;2023-04-03T10:23:00;3.33;;;1.87;;
20090;SDS011;10205;49.678;6.560;2023-04-03T10:25:47;1.70;;;1.60;;
20090;SDS011;10205;49.678;6.560;2023-04-03T10:28:31;1.85;;;1.40;;
20090;SDS011;10205;49.678;6.560;2023-04-03T10:31:12;3.00;;;1.83;;
20090;SDS011;10205;49.678;6.560;2023-04-03T10:33:51;2.13;;;1.60;;
20090;SDS011;10205;49.678;6.560;2023-04-03T10:36:34;2.13;;;1.52;;
20090;SDS011;10205;49.678;6.560;2023-04-03T10:39:19;1.88;;;1.60;;
20090;SDS011;10205;49.678;6.560;2023-04-03T10:41:56;2.67;;;1.80;;
20090;SDS011;10205;49.678;6.560;2023-04-03T10:44:36;3.70;;;2.00;;
20090;SDS011;10205;49.678;6.560;2023-04-03T10:47:24;4.15;;;2.28;;
20090;SDS011;10205;49.678;6.560;2023-04-03T10:50:00;2.83;;;1.80;;
20090;SDS011;10205;49.678;6.560;2023-04-03T10:52:47;2.80;;;1.60;;
20090;SDS011;10205;49.678;6.560;2023-04-03T10:55:24;5.60;;;1.85;;
20090;SDS011;10205;49.678;6.560;2023-04-03T10:58:02;2.00;;;1.80;;
20090;SDS011;10205;49.678;6.560;2023-04-03T11:00:37;1.67;;;1.30;;
20090;SDS011;10205;49.678;6.560;2023-04-03T11:03:12;2.08;;;1.50;;
20090;SDS011;10205;49.678;6.560;2023-04-03T11:05:50;2.47;;;1.73;;
20090;SDS011;10205;49.678;6.560;2023-04-03T11:08:24;1.58;;;1.35;;
20090;SDS011;10205;49.678;6.560;2023-04-03T11:10:59;2.10;;;1.52;;
20090;SDS011;10205;49.678;6.560;2023-04-03T11:13:33;3.15;;;1.80;;
20090;SDS011;10205;49.678;6.560;2023-04-03T11:16:07;2.35;;;1.30;;
20090;SDS011;10205;49.678;6.560;2023-04-03T11:18:42;3.00;;;1.40;;
20090;SDS011;10205;49.678;6.560;2023-04-03T11:21:17;1.80;;;1.33;;
20090;SDS011;10205;49.678;6.560;2023-04-03T11:23:50;2.30;;;1.65;;
20090;SDS011;10205;49.678;6.560;2023-04-03T11:26:21;1.67;;;1.30;;
20090;SDS011;10205;49.678;6.560;2023-04-03T11:28:56;3.40;;;1.67;;
20090;SDS011;10205;49.678;6.560;2023-04-03T11:31:33;2.22;;;1.63;;
20090;SDS011;10205;49.678;6.560;2023-04-03T11:34:24;2.63;;;1.55;;
20090;SDS011;10205;49.678;6.560;2023-04-03T11:37:04;1.77;;;1.35;;
20090;SDS011;10205;49.678;6.560;2023-04-03T11:39:49;1.88;;;1.60;;
20090;SDS011;10205;49.678;6.560;2023-04-03T11:42:33;1.92;;;1.40;;
20090;SDS011;10205;49.678;6.560;2023-04-03T11:45:16;2.50;;;1.30;;
20090;SDS011;10205;49.678;6.560;2023-04-03T11:48:04;1.63;;;1.52;;
20090;SDS011;10205;49.678;6.560;2023-04-03T11:50:41;3.15;;;2.00;;
20090;SDS011;10205;49.678;6.560;2023-04-03T11:53:30;2.85;;;1.65;;
20090;SDS011;10205;49.678;6.560;2023-04-03T11:56:01;2.20;;;1.35;;
20090;SDS011;10205;49.678;6.560;2023-04-03T12:01:50;2.65;;;1.40;;
20090;SDS011;10205;49.678;6.560;2023-04-03T12:04:20;1.70;;;1.50;;
20090;SDS011;10205;49.678;6.560;2023-04-03T12:06:52;2.75;;;1.38;;
20090;SDS011;10205;49.678;6.560;2023-04-03T12:09:56;2.03;;;1.48;;
20090;SDS011;10205;49.678;6.560;2023-04-03T12:12:29;1.42;;;1.20;;
20090;SDS011;10205;49.678;6.560;2023-04-03T12:15:38;2.28;;;1.30;;
20090;SDS011;10205;49.678;6.560;2023-04-03T12:24:38;1.88;;;1.50;;
20090;SDS011;10205;49.678;6.560;2023-04-03T12:30:12;1.98;;;1.52;;
20090;SDS011;10205;49.678;6.560;2023-04-03T12:35:57;2.75;;;1.90;;
20090;SDS011;10205;49.678;6.560;2023-04-03T12:41:42;2.03;;;1.35;;
20090;SDS011;10205;49.678;6.560;2023-04-03T12:44:26;2.70;;;1.60;;
20090;SDS011;10205;49.678;6.560;2023-04-03T12:47:22;2.28;;;1.38;;
20090;SDS011;10205;49.678;6.560;2023-04-03T12:49:57;1.45;;;1.30;;
20090;SDS011;10205;49.678;6.560;2023-04-03T12:52:30;3.75;;;1.40;;
20090;SDS011;10205;49.678;6.560;2023-04-03T12:55:12;2.03;;;1.30;;
20090;SDS011;10205;49.678;6.560;2023-04-03T12:57:43;3.20;;;1.60;;
20090;SDS011;10205;49.678;6.560;2023-04-03T13:00:30;2.72;;;1.50;;
20090;SDS011;10205;49.678;6.560;2023-04-03T13:03:04;2.42;;;1.30;;
20090;SDS011;10205;49.678;6.560;2023-04-03T13:05:43;2.08;;;1.40;;
20090;SDS011;10205;49.678;6.560;2023-04-03T13:08:12;1.95;;;1.40;;
20090;SDS011;10205;49.678;6.560;2023-04-03T13:10:49;2.17;;;1.20;;
20090;SDS011;10205;49.678;6.560;2023-04-03T13:13:22;2.17;;;1.45;;
20090;SDS011;10205;49.678;6.560;2023-04-03T13:15:51;2.55;;;1.40;;
20090;SDS011;10205;49.678;6.560;2023-04-03T13:18:23;1.77;;;1.20;;
20090;SDS011;10205;49.678;6.560;2023-04-03T13:20:59;2.78;;;1.50;;
20090;SDS011;10205;49.678;6.560;2023-04-03T13:23:31;2.22;;;1.42;;
20090;SDS011;10205;49.678;6.560;2023-04-03T13:26:03;2.97;;;1.40;;
20090;SDS011;10205;49.678;6.560;2023-04-03T13:28:34;1.65;;;1.23;;
20090;SDS011;10205;49.678;6.560;2023-04-03T13:31:04;1.73;;;1.17;;
20090;SDS011;10205;49.678;6.560;2023-04-03T13:33:43;2.53;;;1.33;;
20090;SDS011;10205;49.678;6.560;2023-04-03T13:36:24;2.28;;;1.48;;
20090;SDS011;10205;49.678;6.560;2023-04-03T13:38:59;3.67;;;1.30;;
20090;SDS011;10205;49.678;6.560;2023-04-03T13:41:33;1.20;;;1.10;;
20090;SDS011;10205;49.678;6.560;2023-04-03T13:44:15;2.00;;;1.48;;
20090;SDS011;10205;49.678;6.560;2023-04-03T13:46:53;3.25;;;1.40;;
20090;SDS011;10205;49.678;6.560;2023-04-03T13:49:29;1.30;;;1.20;;
20090;SDS011;10205;49.678;6.560;2023-04-03T13:52:00;1.88;;;1.30;;
20090;SDS011;10205;49.678;6.560;2023-04-03T13:54:47;2.65;;;1.35;;
20090;SDS011;10205;49.678;6.560;2023-04-03T13:57:21;2.25;;;1.23;;
20090;SDS011;10205;49.678;6.560;2023-04-03T13:59:48;2.55;;;1.10;;
20090;SDS011;10205;49.678;6.560;2023-04-03T14:02:17;3.30;;;1.20;;
20090;SDS011;10205;49.678;6.560;2023-04-03T14:04:56;2.58;;;1.38;;
20090;SDS011;10205;49.678;6.560;2023-04-03T14:07:27;2.20;;;1.35;;
20090;SDS011;10205;49.678;6.560;2023-04-03T14:09:56;1.83;;;1.33;;
20090;SDS011;10205;49.678;6.560;2023-04-03T14:12:26;2.78;;;1.60;;
20090;SDS011;10205;49.678;6.560;2023-04-03T14:14:58;1.58;;;1.10;;
20090;SDS011;10205;49.678;6.560;2023-04-03T14:17:29;3.60;;;1.13;;
20090;SDS011;10205;49.678;6.560;2023-04-03T14:19:56;1.90;;;1.10;;
20090;SDS011;10205;49.678;6.560;2023-04-03T14:22:27;2.72;;;1.50;;
20090;SDS011;10205;49.678;6.560;2023-04-03T14:24:58;2.08;;;1.23;;
20090;SDS011;10205;49.678;6.560;2023-04-03T14:27:28;2.78;;;1.33;;
20090;SDS011;10205;49.678;6.560;2023-04-03T14:30:01;1.75;;;1.42;;
20090;SDS011;10205;49.678;6.560;2023-04-03T14:32:31;1.98;;;1.20;;
20090;SDS011;10205;49.678;6.560;2023-04-03T14:34:59;2.60;;;1.20;;
20090;SDS011;10205;49.678;6.560;2023-04-03T14:37:28;2.63;;;1.40;;
20090;SDS011;10205;49.678;6.560;2023-04-03T14:39:58;2.70;;;1.30;;
20090;SDS011;10205;49.678;6.560;2023-04-03T14:42:30;3.17;;;1.45;;
20090;SDS011;10205;49.678;6.560;2023-04-03T14:45:02;2.15;;;1.20;;
20090;SDS011;10205;49.678;6.560;2023-04-03T14:47:33;2.83;;;1.65;;
20090;SDS011;10205;49.678;6.560;2023-04-03T14:50:07;3.63;;;1.10;;
20090;SDS011;10205;49.678;6.560;2023-04-03T14:52:39;2.28;;;1.30;;
20090;SDS011;10205;49.678;6.560;2023-04-03T14:55:07;1.85;;;1.25;;
20090;SDS011;10205;49.678;6.560;2023-04-03T14:57:36;1.48;;;1.25;;
20090;SDS011;10205;49.678;6.560;2023-04-03T15:00:07;3.25;;;1.38;;
20090;SDS011;10205;49.678;6.560;2023-04-03T15:02:39;1.88;;;1.20;;
20090;SDS011;10205;49.678;6.560;2023-04-03T15:05:07;1.25;;;1.15;;
20090;SDS011;10205;49.678;6.560;2023-04-03T15:07:37;1.50;;;1.17;;
20090;SDS011;10205;49.678;6.560;2023-04-03T15:10:14;4.03;;;1.67;;
20090;SDS011;10205;49.678;6.560;2023-04-03T15:12:46;2.63;;;1.40;;
20090;SDS011;10205;49.678;6.560;2023-04-03T15:15:15;1.30;;;1.20;;
20090;SDS011;10205;49.678;6.560;2023-04-03T15:17:45;1.88;;;1.20;;
20090;SDS011;10205;49.678;6.560;2023-04-03T15:20:19;2.20;;;1.10;;
20090;SDS011;10205;49.678;6.560;2023-04-03T15:22:49;3.25;;;1.67;;
20090;SDS011;10205;49.678;6.560;2023-04-03T15:25:16;2.30;;;1.40;;
20090;SDS011;10205;49.678;6.560;2023-04-03T15:27:45;1.42;;;1.00;;
20090;SDS011;10205;49.678;6.560;2023-04-03T15:30:16;1.98;;;1.30;;
20090;SDS011;10205;49.678;6.560;2023-04-03T15:32:45;2.17;;;1.00;;
20090;SDS011;10205;49.678;6.560;2023-04-03T15:35:13;1.35;;;0.90;;
20090;SDS011;10205;49.678;6.560;2023-04-03T15:37:41;1.75;;;1.23;;
20090;SDS011;10205;49.678;6.560;2023-04-03T15:40:08;1.55;;;1.10;;